createdAt,value
2024-01-10T00:00:51.586Z,28.83
2024-01-10T00:03:19.118Z,31.07
2024-01-10T00:05:46.179Z,31.27
2024-01-10T00:08:13.401Z,30.27
2024-01-10T00:10:40.633Z,30.73
2024-01-10T00:13:07.985Z,32.53
2024-01-10T00:15:35.474Z,29.00
2024-01-10T00:18:02.415Z,30.63
2024-01-10T00:20:29.718Z,29.60
2024-01-10T00:22:56.815Z,26.30
2024-01-10T00:25:24.120Z,27.87
2024-01-10T00:27:50.962Z,26.87
2024-01-10T00:30:17.967Z,28.87
2024-01-10T00:32:44.889Z,29.63
2024-01-10T00:35:12.664Z,21.57
2024-01-10T00:37:39.841Z,26.67
2024-01-10T00:40:07.344Z,25.03
2024-01-10T00:42:34.539Z,25.40
2024-01-10T00:45:01.732Z,28.30
2024-01-10T00:47:28.842Z,26.33
2024-01-10T00:49:56.692Z,24.73
2024-01-10T00:52:23.699Z,26.73
2024-01-10T00:54:50.621Z,26.53
2024-01-10T00:57:17.619Z,23.57
2024-01-10T00:59:44.483Z,25.57
2024-01-10T01:02:11.846Z,28.30
2024-01-10T01:04:38.999Z,26.10
2024-01-10T01:07:07.136Z,26.07
2024-01-10T01:09:35.176Z,22.73
2024-01-10T01:12:02.101Z,27.00
2024-01-10T01:14:29.242Z,27.00
2024-01-10T01:16:56.121Z,23.13
2024-01-10T01:19:23.379Z,28.40
2024-01-10T01:21:50.235Z,27.97
2024-01-10T01:24:17.089Z,28.50
2024-01-10T01:26:44.962Z,29.17
2024-01-10T01:29:12.232Z,28.77
2024-01-10T01:31:39.653Z,29.13
2024-01-10T01:34:06.656Z,28.13
2024-01-10T01:36:35.297Z,29.70
2024-01-10T01:39:02.203Z,27.87
2024-01-10T01:41:30.540Z,28.60
2024-01-10T01:43:57.613Z,25.20
2024-01-10T01:46:25.136Z,26.93
2024-01-10T01:48:54.219Z,25.23
2024-01-10T01:51:23.271Z,29.40
2024-01-10T01:53:51.304Z,30.17
2024-01-10T01:56:18.783Z,28.00
2024-01-10T01:58:47.697Z,27.27
2024-01-10T02:01:15.201Z,28.93
2024-01-10T02:03:42.526Z,30.13
2024-01-10T02:06:09.627Z,26.40
2024-01-10T02:08:37.128Z,25.93
2024-01-10T02:11:05.039Z,29.43
2024-01-10T02:13:35.568Z,29.77
2024-01-10T02:16:04.636Z,30.70
2024-01-10T02:18:31.793Z,20.77
2024-01-10T02:20:59.190Z,28.67
2024-01-10T02:23:27.351Z,29.07
2024-01-10T02:25:54.525Z,29.90
2024-01-10T02:28:21.449Z,25.90
2024-01-10T02:30:48.746Z,29.90
2024-01-10T02:33:15.833Z,28.93
2024-01-10T02:35:43.029Z,29.73
2024-01-10T02:38:11.181Z,26.87
2024-01-10T02:40:38.334Z,26.70
2024-01-10T02:43:05.491Z,21.77
2024-01-10T02:45:32.541Z,28.30
2024-01-10T02:47:59.942Z,27.03
2024-01-10T02:50:27.156Z,26.47
2024-01-10T02:52:54.514Z,25.70
2024-01-10T02:55:21.517Z,22.47
2024-01-10T02:57:48.717Z,24.57
2024-01-10T03:00:15.729Z,25.17
2024-01-10T03:02:42.967Z,22.63
2024-01-10T03:05:10.698Z,19.33
2024-01-10T03:07:37.922Z,25.70
2024-01-10T03:10:05.128Z,24.43
2024-01-10T03:12:32.182Z,23.90
2024-01-10T03:14:59.952Z,23.17
2024-01-10T03:17:28.023Z,24.03
2024-01-10T03:19:55.120Z,22.57
2024-01-10T03:22:22.266Z,21.17
2024-01-10T03:24:49.120Z,22.63
2024-01-10T03:27:16.382Z,22.97
2024-01-10T03:29:43.406Z,19.90
2024-01-10T03:32:10.734Z,21.33
2024-01-10T03:34:37.739Z,18.33
2024-01-10T03:37:04.917Z,19.23
2024-01-10T03:39:32.017Z,19.67
2024-01-10T03:41:59.154Z,19.73
2024-01-10T03:44:27.881Z,21.10
2024-01-10T03:46:56.153Z,19.73
2024-01-10T03:49:23.067Z,23.60
2024-01-10T03:51:50.282Z,25.23
2024-01-10T03:54:17.392Z,25.40
2024-01-10T03:56:44.529Z,23.50
2024-01-10T03:59:11.870Z,25.60
2024-01-10T04:01:40.702Z,26.07
2024-01-10T04:04:07.666Z,25.23
2024-01-10T04:06:35.845Z,23.20
2024-01-10T04:09:03.778Z,24.00
2024-01-10T04:11:30.874Z,26.60
2024-01-10T04:13:58.133Z,25.13
2024-01-10T04:16:25.030Z,28.03
2024-01-10T04:18:52.073Z,26.27
2024-01-10T04:21:19.174Z,29.13
2024-01-10T04:23:46.029Z,35.17
2024-01-10T04:26:13.276Z,29.33
2024-01-10T04:28:42.609Z,29.60
2024-01-10T04:31:09.640Z,33.37
2024-01-10T04:33:37.558Z,33.00
2024-01-10T04:36:04.864Z,33.73
2024-01-10T04:38:33.093Z,30.17
2024-01-10T04:41:00.209Z,31.77
2024-01-10T04:43:27.172Z,29.80
2024-01-10T04:45:54.283Z,34.20
2024-01-10T04:48:21.272Z,29.43
2024-01-10T04:50:48.288Z,34.53
2024-01-10T04:53:15.662Z,34.20
2024-01-10T04:55:42.695Z,37.43
2024-01-10T04:58:09.760Z,31.60
2024-01-10T05:00:36.966Z,32.53
2024-01-10T05:03:04.007Z,32.37
2024-01-10T05:05:31.195Z,28.27
2024-01-10T05:07:58.431Z,29.20
2024-01-10T05:10:25.560Z,29.37
2024-01-10T05:12:52.478Z,30.07
2024-01-10T05:15:19.619Z,32.80
2024-01-10T05:17:46.705Z,36.30
2024-01-10T05:20:14.797Z,33.40
2024-01-10T05:22:42.313Z,29.50
2024-01-10T05:25:09.572Z,30.63
2024-01-10T05:27:36.626Z,33.70
2024-01-10T05:30:04.033Z,28.87
2024-01-10T05:32:31.542Z,28.47
2024-01-10T05:34:58.509Z,27.83
2024-01-10T05:37:25.407Z,29.20
2024-01-10T05:39:52.241Z,29.83
2024-01-10T05:42:20.603Z,28.33
2024-01-10T05:44:48.633Z,25.47
2024-01-10T05:47:16.013Z,26.87
2024-01-10T05:49:43.890Z,25.70
2024-01-10T05:52:10.894Z,21.93
2024-01-10T05:54:38.017Z,26.53
2024-01-10T05:57:05.353Z,28.77
2024-01-10T05:59:32.503Z,24.83
2024-01-10T06:02:00.159Z,26.40
2024-01-10T06:04:29.139Z,29.73
2024-01-10T06:06:56.267Z,25.93
2024-01-10T06:09:23.626Z,27.77
2024-01-10T06:11:51.044Z,26.00
2024-01-10T06:14:18.584Z,25.50
2024-01-10T06:16:46.462Z,22.90
2024-01-10T06:19:13.768Z,27.83
2024-01-10T06:21:41.017Z,26.07
2024-01-10T06:24:09.473Z,23.63
2024-01-10T06:26:36.355Z,25.03
2024-01-10T06:29:03.533Z,24.50
2024-01-10T06:31:30.464Z,23.50
2024-01-10T06:33:57.439Z,23.67
2024-01-10T06:36:24.553Z,24.63
2024-01-10T06:38:51.516Z,23.17
2024-01-10T06:41:18.494Z,24.87
2024-01-10T06:43:45.556Z,25.70
2024-01-10T06:46:13.043Z,21.50
2024-01-10T06:48:42.622Z,22.80
2024-01-10T06:51:19.460Z,24.30
2024-01-10T06:53:46.463Z,20.77
2024-01-10T06:56:14.436Z,23.17
2024-01-10T06:58:41.467Z,21.27
2024-01-10T07:01:15.491Z,21.17
2024-01-10T07:03:43.144Z,21.97
2024-01-10T07:06:10.272Z,20.03
2024-01-10T07:08:37.414Z,21.17
2024-01-10T07:11:04.538Z,18.73
2024-01-10T07:13:32.662Z,21.07
2024-01-10T07:16:03.265Z,19.87
2024-01-10T07:18:34.411Z,20.30
2024-01-10T07:21:01.653Z,13.53
2024-01-10T07:23:28.877Z,20.63
2024-01-10T07:25:55.868Z,19.63
2024-01-10T07:28:22.733Z,20.77
2024-01-10T07:30:49.625Z,19.27
2024-01-10T07:33:17.148Z,19.33
2024-01-10T07:35:44.376Z,18.57
2024-01-10T07:38:11.447Z,18.30
2024-01-10T07:40:38.380Z,14.93
2024-01-10T07:43:05.876Z,18.77
2024-01-10T07:45:32.743Z,18.23
2024-01-10T07:47:59.855Z,19.70
2024-01-10T07:50:29.421Z,15.27
2024-01-10T07:52:56.856Z,19.07
2024-01-10T07:55:23.782Z,19.97
2024-01-10T07:57:50.809Z,19.47
2024-01-10T08:00:18.165Z,18.73
2024-01-10T08:02:45.211Z,19.97
2024-01-10T08:05:14.033Z,19.73
2024-01-10T08:07:41.166Z,19.07
2024-01-10T08:10:10.515Z,19.10
2024-01-10T08:12:42.519Z,21.40
2024-01-10T08:15:09.603Z,17.47
2024-01-10T08:17:38.912Z,18.63
2024-01-10T08:20:09.766Z,21.03
2024-01-10T08:22:36.982Z,22.47
2024-01-10T08:25:04.371Z,20.07
2024-01-10T08:27:31.383Z,22.70
2024-01-10T08:29:58.528Z,18.73
2024-01-10T08:32:25.956Z,23.80
2024-01-10T08:34:52.905Z,20.93
2024-01-10T08:37:20.024Z,23.00
2024-01-10T08:39:47.159Z,17.83
2024-01-10T08:42:14.249Z,22.90
2024-01-10T08:44:41.162Z,21.80
2024-01-10T08:47:08.355Z,22.77
2024-01-10T08:49:35.211Z,24.13
2024-01-10T08:52:02.169Z,21.23
2024-01-10T08:54:30.088Z,23.93
2024-01-10T08:56:57.375Z,24.30
2024-01-10T08:59:25.316Z,22.80
2024-01-10T09:01:53.389Z,25.40
2024-01-10T09:04:21.173Z,24.60
2024-01-10T09:06:48.763Z,23.37
2024-01-10T09:09:15.751Z,26.97
2024-01-10T09:11:44.278Z,27.13
2024-01-10T09:14:13.081Z,27.10
2024-01-10T09:16:40.087Z,26.93
2024-01-10T09:19:11.083Z,25.67
2024-01-10T09:21:38.784Z,27.90
2024-01-10T09:24:18.364Z,26.80
2024-01-10T09:26:54.900Z,28.70
2024-01-10T09:29:22.518Z,26.57
2024-01-10T09:31:49.663Z,26.03
2024-01-10T09:34:20.534Z,21.63
2024-01-10T09:36:48.439Z,27.00
2024-01-10T09:39:18.006Z,27.80
2024-01-10T09:41:54.213Z,20.37
2024-01-10T09:44:23.221Z,19.40
2024-01-10T09:46:56.153Z,21.93
2024-01-10T09:49:23.994Z,26.53
2024-01-10T09:51:54.580Z,20.90
2024-01-10T09:54:25.646Z,20.77
2024-01-10T09:56:52.784Z,22.73
2024-01-10T09:59:21.094Z,18.00
2024-01-10T10:01:48.487Z,15.00
2024-01-10T10:04:19.367Z,21.50
2024-01-10T10:06:47.051Z,21.33
2024-01-10T10:09:15.333Z,21.93
2024-01-10T10:11:42.351Z,26.43
2024-01-10T10:14:20.286Z,20.30
2024-01-10T10:16:47.375Z,14.70
2024-01-10T10:19:30.158Z,13.33
2024-01-10T10:22:10.615Z,26.13
2024-01-10T10:24:37.803Z,19.80
2024-01-10T10:27:13.022Z,17.70
2024-01-10T10:29:40.793Z,16.70
2024-01-10T10:32:10.098Z,20.30
2024-01-10T10:34:37.147Z,21.87
2024-01-10T10:37:04.369Z,15.33
2024-01-10T10:39:31.384Z,24.10
2024-01-10T10:41:59.240Z,23.97
2024-01-10T10:44:28.570Z,21.20
2024-01-10T10:47:11.677Z,26.23
2024-01-10T10:49:54.099Z,26.80
2024-01-10T10:52:22.933Z,28.20
2024-01-10T10:54:51.789Z,27.17
2024-01-10T10:57:21.425Z,26.17
2024-01-10T10:59:50.940Z,22.40
2024-01-10T11:02:30.498Z,25.87
2024-01-10T11:05:00.832Z,26.20
2024-01-10T11:07:28.876Z,20.80
2024-01-10T11:09:56.935Z,26.23
2024-01-10T11:12:32.828Z,26.60
2024-01-10T11:15:25.001Z,26.57
2024-01-10T11:17:58.185Z,28.77
2024-01-10T11:20:49.026Z,26.33
2024-01-10T11:23:31.157Z,23.07
2024-01-10T11:25:59.829Z,17.70
2024-01-10T11:28:28.845Z,27.23
2024-01-10T11:30:58.222Z,27.60
2024-01-10T11:33:26.680Z,29.23
2024-01-10T11:36:15.897Z,26.97
2024-01-10T11:38:59.004Z,26.37
2024-01-10T11:41:26.438Z,21.23
2024-01-10T11:44:16.797Z,25.53
2024-01-10T11:46:47.289Z,20.27
2024-01-10T11:49:18.711Z,16.77
2024-01-10T11:51:49.198Z,24.53
2024-01-10T11:54:44.905Z,23.27
2024-01-10T11:57:22.940Z,23.17
2024-01-10T11:59:57.532Z,18.93
2024-01-10T12:02:27.741Z,25.67
2024-01-10T12:04:56.810Z,21.30
2024-01-10T12:07:25.353Z,23.83
2024-01-10T12:09:52.408Z,23.53
2024-01-10T12:12:19.890Z,24.47
2024-01-10T12:14:49.806Z,24.20
2024-01-10T12:17:17.664Z,14.43
2024-01-10T12:19:47.216Z,14.70
2024-01-10T12:22:17.140Z,23.63
2024-01-10T12:24:46.706Z,22.43
2024-01-10T12:27:13.839Z,24.23
2024-01-10T12:29:41.301Z,22.30
2024-01-10T12:32:13.281Z,22.73
2024-01-10T12:34:41.537Z,19.23
2024-01-10T12:37:08.658Z,15.80
2024-01-10T12:39:35.782Z,20.70
2024-01-10T12:42:03.112Z,14.10
2024-01-10T12:44:33.528Z,16.63
2024-01-10T12:47:01.486Z,14.67
2024-01-10T12:49:28.597Z,22.07
2024-01-10T12:51:56.045Z,17.60
2024-01-10T12:54:23.392Z,21.90
2024-01-10T12:56:51.622Z,22.43
2024-01-10T12:59:19.821Z,20.37
2024-01-10T13:01:47.090Z,24.83
2024-01-10T13:04:14.502Z,17.27
2024-01-10T13:06:41.914Z,22.37
2024-01-10T13:09:10.644Z,22.67
2024-01-10T13:11:38.184Z,17.50
2024-01-10T13:14:05.099Z,15.47
2024-01-10T13:16:35.019Z,21.27
2024-01-10T13:19:06.759Z,27.13
2024-01-10T13:21:33.692Z,26.07
2024-01-10T13:24:00.753Z,22.00
2024-01-10T13:26:27.896Z,20.00
2024-01-10T13:28:54.761Z,21.10
2024-01-10T13:31:21.858Z,18.43
2024-01-10T13:33:49.094Z,21.13
2024-01-10T13:36:16.101Z,20.93
2024-01-10T13:38:43.296Z,22.97
2024-01-10T13:41:10.599Z,22.83
2024-01-10T13:43:37.766Z,24.93
2024-01-10T13:46:09.511Z,26.23
2024-01-10T13:48:37.407Z,25.53
2024-01-10T13:51:04.439Z,26.60
2024-01-10T13:53:31.627Z,21.33
2024-01-10T13:55:58.670Z,27.60
2024-01-10T13:58:25.753Z,27.00
2024-01-10T14:00:53.074Z,22.40
2024-01-10T14:03:20.223Z,23.87
2024-01-10T14:05:47.385Z,33.90
2024-01-10T14:08:14.480Z,36.03
2024-01-10T14:10:43.451Z,27.17
2024-01-10T14:13:10.801Z,31.10
2024-01-10T14:15:37.825Z,30.70
2024-01-10T14:18:05.930Z,31.37
2024-01-10T14:20:34.063Z,28.00
2024-01-10T14:23:01.982Z,27.37
2024-01-10T14:25:29.897Z,28.93
2024-01-10T14:27:56.887Z,29.53
2024-01-10T14:30:26.354Z,30.37
2024-01-10T14:32:53.904Z,28.27
2024-01-10T14:35:21.632Z,27.47
2024-01-10T14:37:49.002Z,29.03
2024-01-10T14:40:16.827Z,25.63
2024-01-10T14:42:43.833Z,24.10
2024-01-10T14:45:12.169Z,25.33
2024-01-10T14:47:42.751Z,24.70
2024-01-10T14:50:10.202Z,25.63
2024-01-10T14:52:37.111Z,26.73
2024-01-10T14:55:06.178Z,28.03
2024-01-10T14:57:34.277Z,28.53
2024-01-10T15:00:01.613Z,25.23
2024-01-10T15:02:28.889Z,25.00
2024-01-10T15:04:56.344Z,25.17
2024-01-10T15:07:23.391Z,27.67
2024-01-10T15:09:50.579Z,26.40
2024-01-10T15:12:19.051Z,28.83
2024-01-10T15:14:46.101Z,27.73
2024-01-10T15:17:14.210Z,25.13
2024-01-10T15:19:42.149Z,25.10
2024-01-10T15:22:12.063Z,26.90
2024-01-10T15:24:39.931Z,26.83
2024-01-10T15:27:12.091Z,27.20
2024-01-10T15:29:41.227Z,28.53
2024-01-10T15:32:09.506Z,27.10
2024-01-10T15:34:36.877Z,29.90
2024-01-10T15:37:04.307Z,30.77
2024-01-10T15:39:31.803Z,28.00
2024-01-10T15:41:59.047Z,29.13
2024-01-10T15:44:26.194Z,27.00
2024-01-10T15:46:53.356Z,30.10
2024-01-10T15:49:20.783Z,29.33
2024-01-10T15:51:50.074Z,31.33
2024-01-10T15:54:17.802Z,29.63
2024-01-10T15:56:45.028Z,29.87
2024-01-10T15:59:14.132Z,29.43
2024-01-10T16:01:41.391Z,29.53
2024-01-10T16:04:08.782Z,29.43
2024-01-10T16:06:37.438Z,29.10
2024-01-10T16:09:05.181Z,26.03
2024-01-10T16:11:33.146Z,28.77
2024-01-10T16:14:00.387Z,25.50
2024-01-10T16:16:31.446Z,29.07
2024-01-10T16:19:01.013Z,32.47
2024-01-10T16:21:27.993Z,29.90
2024-01-10T16:23:55.245Z,28.60
2024-01-10T16:26:22.643Z,31.53
2024-01-10T16:28:50.051Z,30.07
2024-01-10T16:31:18.361Z,29.03
2024-01-10T16:33:45.350Z,24.43
2024-01-10T16:36:12.677Z,30.67
2024-01-10T16:38:41.174Z,28.97
2024-01-10T16:41:09.122Z,28.90
2024-01-10T16:43:36.848Z,26.57
2024-01-10T16:46:04.420Z,24.03
2024-01-10T16:48:31.640Z,25.67
2024-01-10T16:51:00.113Z,27.60
2024-01-10T16:53:28.932Z,27.40
2024-01-10T16:55:59.837Z,27.33
2024-01-10T16:58:27.142Z,27.17
2024-01-10T17:00:57.132Z,27.10
2024-01-10T17:03:24.293Z,26.03
2024-01-10T17:05:51.782Z,25.83
2024-01-10T17:08:19.077Z,26.67
2024-01-10T17:10:46.139Z,28.60
2024-01-10T17:13:13.622Z,28.27
2024-01-10T17:15:40.646Z,27.00
2024-01-10T17:18:08.037Z,26.97
2024-01-10T17:20:36.644Z,26.90
2024-01-10T17:23:04.084Z,28.93
2024-01-10T17:25:31.001Z,30.23
2024-01-10T17:27:57.905Z,30.20
2024-01-10T17:30:25.094Z,30.70
2024-01-10T17:32:52.078Z,35.70
2024-01-10T17:35:19.177Z,29.47
2024-01-10T17:37:46.664Z,37.57
2024-01-10T17:40:14.785Z,29.40
2024-01-10T17:42:41.934Z,31.73
2024-01-10T17:45:10.207Z,35.33
2024-01-10T17:47:37.928Z,35.90
2024-01-10T17:50:05.755Z,35.87
2024-01-10T17:52:32.959Z,32.80
2024-01-10T17:55:00.248Z,45.63
2024-01-10T17:57:28.834Z,41.40
2024-01-10T17:59:56.972Z,46.70
2024-01-10T18:02:24.553Z,57.90
2024-01-10T18:04:51.875Z,68.00
2024-01-10T18:07:18.905Z,45.77
2024-01-10T18:09:46.050Z,39.20
2024-01-10T18:12:13.224Z,38.57
2024-01-10T18:14:40.173Z,35.63
2024-01-10T18:17:07.115Z,37.40
2024-01-10T18:19:34.335Z,37.07
2024-01-10T18:22:01.578Z,36.87
2024-01-10T18:24:28.649Z,35.33
2024-01-10T18:26:55.779Z,35.30
2024-01-10T18:29:22.659Z,42.30
2024-01-10T18:31:50.634Z,39.67
2024-01-10T18:34:17.769Z,39.80
2024-01-10T18:36:44.792Z,41.80
2024-01-10T18:39:14.214Z,41.47
2024-01-10T18:41:42.454Z,38.27
2024-01-10T18:44:09.878Z,40.23
2024-01-10T18:46:38.116Z,39.10
2024-01-10T18:49:06.555Z,38.93
2024-01-10T18:51:33.857Z,40.70
2024-01-10T18:54:01.364Z,37.40
2024-01-10T18:56:28.563Z,37.60
2024-01-10T18:58:55.848Z,37.00
2024-01-10T19:03:50.022Z,38.23
2024-01-10T19:06:17.340Z,28.23
2024-01-10T19:08:44.632Z,35.53
2024-01-10T19:11:11.896Z,38.20
2024-01-10T19:13:41.866Z,37.23
2024-01-10T19:16:13.081Z,38.63
2024-01-10T19:18:40.430Z,38.70
2024-01-10T19:21:07.748Z,38.13
2024-01-10T19:23:35.261Z,38.83
2024-01-10T19:26:02.311Z,35.00
2024-01-10T19:28:29.426Z,41.73
2024-01-10T19:30:58.463Z,39.97
2024-01-10T19:33:25.856Z,41.10
2024-01-10T19:35:53.098Z,46.43
2024-01-10T19:38:20.325Z,42.60
2024-01-10T19:40:48.505Z,41.57
2024-01-10T19:43:25.454Z,44.83
2024-01-10T19:45:52.360Z,46.27
2024-01-10T19:48:20.835Z,47.60
2024-01-10T19:50:48.110Z,48.07
2024-01-10T19:53:15.198Z,48.03
2024-01-10T19:55:42.685Z,48.80
2024-01-10T19:58:10.137Z,48.70
2024-01-10T20:00:37.497Z,50.23
2024-01-10T20:03:05.123Z,51.50
2024-01-10T20:05:32.157Z,49.83
2024-01-10T20:07:59.354Z,46.60
2024-01-10T20:10:26.368Z,53.83
2024-01-10T20:12:53.294Z,62.50
2024-01-10T20:15:20.497Z,74.80
2024-01-10T20:17:47.575Z,66.13
2024-01-10T20:20:16.423Z,61.97
2024-01-10T20:22:47.185Z,59.40
2024-01-10T20:25:16.063Z,64.13
2024-01-10T20:27:43.404Z,57.57
2024-01-10T20:30:10.592Z,59.60
2024-01-10T20:32:40.000Z,63.63
2024-01-10T20:35:07.522Z,48.13
2024-01-10T20:37:35.589Z,51.43
2024-01-10T20:40:07.224Z,52.07
2024-01-10T20:42:34.340Z,50.63
2024-01-10T20:45:01.439Z,49.70
2024-01-10T20:47:28.810Z,54.40
2024-01-10T20:49:57.035Z,51.70
2024-01-10T20:52:24.605Z,52.47
2024-01-10T20:54:53.650Z,50.43
2024-01-10T20:57:20.950Z,54.60
2024-01-10T20:59:48.299Z,49.93
2024-01-10T21:02:15.931Z,51.17
2024-01-10T21:04:43.250Z,47.90
2024-01-10T21:07:13.582Z,50.20
2024-01-10T21:09:44.792Z,53.00
2024-01-10T21:12:12.825Z,56.23
2024-01-10T21:14:44.872Z,52.80
2024-01-10T21:17:13.498Z,52.03
2024-01-10T21:19:41.785Z,52.93
2024-01-10T21:22:09.155Z,51.93
2024-01-10T21:24:38.059Z,52.73
2024-01-10T21:27:05.840Z,50.47
2024-01-10T21:29:32.945Z,49.10
2024-01-10T21:32:00.274Z,46.23
2024-01-10T21:34:27.635Z,48.57
2024-01-10T21:36:55.556Z,49.13
2024-01-10T21:39:25.669Z,48.87
2024-01-10T21:41:53.192Z,46.13
2024-01-10T21:44:23.067Z,47.97
2024-01-10T21:46:51.231Z,46.93
2024-01-10T21:49:18.241Z,42.70
2024-01-10T21:51:45.438Z,45.70
2024-01-10T21:54:12.784Z,45.33
2024-01-10T21:56:39.885Z,42.23
2024-01-10T21:59:08.144Z,41.23
2024-01-10T22:01:35.282Z,44.00
2024-01-10T22:04:02.503Z,41.97
2024-01-10T22:06:29.558Z,39.10
2024-01-10T22:08:56.485Z,42.23
2024-01-10T22:11:24.153Z,32.00
2024-01-10T22:13:52.203Z,41.67
2024-01-10T22:16:20.655Z,39.23
2024-01-10T22:18:47.932Z,36.73
2024-01-10T22:21:15.165Z,40.43
2024-01-10T22:23:42.120Z,42.27
2024-01-10T22:26:09.411Z,42.43
2024-01-10T22:28:36.392Z,34.40
2024-01-10T22:31:06.736Z,40.37
2024-01-10T22:33:33.938Z,40.97
2024-01-10T22:36:00.925Z,34.90
2024-01-10T22:38:28.147Z,41.53
2024-01-10T22:40:55.290Z,43.30
2024-01-10T22:43:22.455Z,31.73
2024-01-10T22:45:49.608Z,42.13
2024-01-10T22:48:18.622Z,43.53
2024-01-10T22:50:47.860Z,41.47
2024-01-10T22:53:15.275Z,42.30
2024-01-10T22:55:42.276Z,36.50
2024-01-10T22:58:09.808Z,42.00
2024-01-10T23:00:36.841Z,35.03
2024-01-10T23:03:04.104Z,40.87
2024-01-10T23:05:31.027Z,37.53
2024-01-10T23:07:58.065Z,42.07
2024-01-10T23:10:25.767Z,42.57
2024-01-10T23:12:52.686Z,41.73
2024-01-10T23:15:19.804Z,41.43
2024-01-10T23:17:48.234Z,41.20
2024-01-10T23:20:15.487Z,37.70
2024-01-10T23:22:42.414Z,41.33
2024-01-10T23:25:11.669Z,36.50
2024-01-10T23:27:40.210Z,35.90
2024-01-10T23:30:09.468Z,42.23
2024-01-10T23:32:38.347Z,43.57
2024-01-10T23:35:05.903Z,43.23
2024-01-10T23:37:33.129Z,40.20
2024-01-10T23:40:00.235Z,40.40
2024-01-10T23:42:27.312Z,43.07
2024-01-10T23:44:54.219Z,42.67
2024-01-10T23:47:21.219Z,40.57
2024-01-10T23:49:49.728Z,38.43
2024-01-10T23:52:16.925Z,43.10
2024-01-10T23:54:43.848Z,36.33
2024-01-10T23:57:10.783Z,41.83
2024-01-10T23:59:39.563Z,41.37
